< < Back
Terminal Aerodrome Forecast


Current Version              Previous Versions:   1  2  3  4  5  6  7  8  9  

Terminal Aerodrome Forecast

727
FTAK31 PAJN 181700
TAFAHN
TAF
PAHN 181725Z 1818/1918 10005KT 5SM -RA BR SCT005 OVC050
     FM181900 VRB04KT 5SM -RA BR BKN015 OVC050
     FM182300 07006KT 5SM -RA BR BKN015 OVC050
     FM190400 09011KT P6SM -RA BKN015 OVC050
     FM191400 10015G22KT P6SM -RA BKN015 OVC050
      AMD LTD TO CLD VIS AND WIND=

Latest METAR

552
SAUS70 KWBC 190200
MTRAHN
METAR KAHN 190151Z AUTO 00000KT 10SM FEW095 21/19 A3000 RMK AO2 SLP154
T02060189


USA.gov is the U.S. government's official web portal to all federal, state and local government web resources and services.